Time;durP1;ratioP1;P1;durP2;ratioP2;P2;SDS_P1;SDS_P2;PMS_P1;PMS_P2;Temp;Humidity;BMP_temperature;BMP_pressure;BME280_temperature;BME280_humidity;BME280_pressure;Samples;Min_cycle;Max_cycle;Signal;HPM_P1;HPM_P2
2021/07/04 00:01:39;;;;;;;8.10;7.30;;;19.30;99.90;;;;;;5062394;28;20475;-77
2021/07/04 00:04:06;;;;;;;6.30;5.70;;;19.30;99.90;;;;;;5064053;28;20442;-77
2021/07/04 00:06:32;;;;;;;7.23;6.57;;;19.30;99.90;;;;;;5060281;28;20449;-78
2021/07/04 00:09:00;;;;;;;8.33;7.50;;;19.30;99.90;;;;;;5057324;28;20476;-78
2021/07/04 00:11:27;;;;;;;7.43;6.73;;;19.20;99.90;;;;;;5056647;28;20447;-78
2021/07/04 00:13:53;;;;;;;7.60;6.90;;;19.10;99.90;;;;;;5055892;28;20452;-77
2021/07/04 00:16:20;;;;;;;7.20;6.50;;;19.10;99.90;;;;;;5056172;28;20475;-77
2021/07/04 00:18:47;;;;;;;11.50;7.30;;;19.10;99.90;;;;;;5056934;28;20561;-77
2021/07/04 00:21:13;;;;;;;8.30;6.67;;;19.10;99.90;;;;;;5061189;28;20927;-77
2021/07/04 00:23:40;;;;;;;6.60;6.03;;;19.10;99.90;;;;;;5060452;28;20453;-78
2021/07/04 00:26:08;;;;;;;6.97;6.30;;;19.00;99.90;;;;;;5060294;28;20453;-78
2021/07/04 00:28:34;;;;;;;7.90;7.30;;;19.00;99.90;;;;;;5059321;28;20462;-77
2021/07/04 00:31:01;;;;;;;10.30;7.20;;;19.00;99.90;;;;;;5060724;28;20504;-77
2021/07/04 00:33:28;;;;;;;9.87;7.20;;;19.00;99.90;;;;;;5057282;28;20951;-78
2021/07/04 00:35:54;;;;;;;6.73;6.13;;;19.00;99.90;;;;;;5055501;28;20799;-78
2021/07/04 00:38:21;;;;;;;9.20;8.40;;;19.10;99.90;;;;;;5055256;28;20544;-78
2021/07/04 00:40:47;;;;;;;10.17;9.07;;;19.10;99.90;;;;;;5056051;28;20940;-78
2021/07/04 00:43:16;;;;;;;8.70;7.97;;;19.10;99.90;;;;;;5064705;28;20444;-77
2021/07/04 00:45:43;;;;;;;8.43;7.50;;;19.10;99.90;;;;;;5059441;28;20445;-78
2021/07/04 00:48:09;;;;;;;13.40;8.10;;;19.10;99.90;;;;;;5055465;28;20469;-78
2021/07/04 00:50:37;;;;;;;9.73;8.83;;;19.10;99.90;;;;;;5055404;28;20453;-79
2021/07/04 00:53:04;;;;;;;10.23;8.17;;;19.00;99.90;;;;;;5055741;28;20849;-78
2021/07/04 00:55:31;;;;;;;10.10;8.97;;;19.00;99.90;;;;;;5055260;28;20498;-78
2021/07/04 00:57:58;;;;;;;8.40;7.60;;;19.10;99.90;;;;;;5054625;28;20567;-77
2021/07/04 01:00:28;;;;;;;9.50;8.40;;;19.00;99.90;;;;;;5061510;28;20449;-77
2021/07/04 01:02:55;;;;;;;9.23;8.30;;;19.00;99.90;;;;;;5062186;28;20441;-77
2021/07/04 01:05:24;;;;;;;9.10;8.20;;;19.00;99.90;;;;;;5061960;28;20452;-77
2021/07/04 01:07:51;;;;;;;9.20;8.30;;;19.00;99.90;;;;;;5056334;28;20472;-78
2021/07/04 01:10:19;;;;;;;8.97;8.13;;;18.90;99.90;;;;;;5055463;28;20568;-78
2021/07/04 01:12:48;;;;;;;9.33;8.20;;;18.90;99.90;;;;;;5055298;28;20441;-78
2021/07/04 01:15:17;;;;;;;9.00;7.60;;;18.90;99.90;;;;;;5055795;28;20841;-77
2021/07/04 01:17:46;;;;;;;8.57;7.60;;;18.90;99.90;;;;;;5054971;28;20448;-78
2021/07/04 01:20:14;;;;;;;8.50;7.70;;;18.90;99.90;;;;;;5054471;28;20881;-78
2021/07/04 01:22:42;;;;;;;8.37;7.57;;;18.80;99.90;;;;;;5055147;28;20455;-78
2021/07/04 01:25:13;;;;;;;10.50;9.13;;;18.70;99.90;;;;;;5057455;28;20459;-78
2021/07/04 01:27:40;;;;;;;8.40;7.70;;;18.70;99.90;;;;;;5056363;28;20507;-78
2021/07/04 01:30:09;;;;;;;9.33;8.47;;;18.60;99.90;;;;;;5055145;28;20990;-78
2021/07/04 01:32:36;;;;;;;8.37;7.57;;;18.60;99.90;;;;;;5055307;28;20457;-78
2021/07/04 01:35:03;;;;;;;9.67;8.87;;;18.50;99.90;;;;;;5059784;28;20475;-77
2021/07/04 01:37:30;;;;;;;9.47;8.67;;;18.50;99.90;;;;;;5061402;28;20451;-77
2021/07/04 01:39:56;;;;;;;11.47;8.60;;;18.50;99.90;;;;;;5062093;28;20488;-77
2021/07/04 01:42:24;;;;;;;10.10;9.20;;;18.50;99.90;;;;;;5059635;28;20825;-78
2021/07/04 01:44:51;;;;;;;8.93;8.03;;;18.50;99.90;;;;;;5055708;28;20540;-78
2021/07/04 01:47:17;;;;;;;9.47;8.63;;;18.40;99.90;;;;;;5055225;28;20602;-78
2021/07/04 01:49:44;;;;;;;9.37;8.40;;;18.40;99.90;;;;;;5055021;28;20471;-78
2021/07/04 01:52:10;;;;;;;10.57;9.47;;;18.40;99.90;;;;;;5054833;28;20471;-78
2021/07/04 01:54:38;;;;;;;10.17;9.03;;;18.40;99.90;;;;;;5054585;28;20479;-77
2021/07/04 01:57:12;;;;;;;9.83;8.83;;;18.40;99.90;;;;;;5054618;28;20496;-78
2021/07/04 01:59:40;;;;;;;11.10;8.33;;;18.40;99.90;;;;;;5054223;28;20490;-78
2021/07/04 02:02:07;;;;;;;9.37;8.43;;;18.30;99.90;;;;;;5053990;28;20446;-77
2021/07/04 02:04:38;;;;;;;11.03;9.77;;;18.30;99.90;;;;;;5054190;28;20866;-78
2021/07/04 02:07:05;;;;;;;10.30;9.20;;;18.30;99.90;;;;;;5054135;28;20432;-77
2021/07/04 02:09:32;;;;;;;10.73;8.30;;;18.30;99.90;;;;;;5054034;28;20559;-78
2021/07/04 02:11:59;;;;;;;10.60;8.90;;;18.40;99.90;;;;;;5054620;28;20448;-78
2021/07/04 02:19:33;;;;;;;10.87;9.77;;;18.30;99.90;;;;;;5035622;28;20563;-78
2021/07/04 02:22:00;;;;;;;10.50;8.90;;;18.40;99.90;;;;;;5036837;28;20424;-77
2021/07/04 02:24:27;;;;;;;11.10;10.00;;;18.40;99.90;;;;;;5036376;28;20451;-77
2021/07/04 02:26:53;;;;;;;10.80;9.70;;;18.40;99.90;;;;;;5036424;28;20460;-79
2021/07/04 02:31:48;;;;;;;11.37;9.63;;;18.40;99.90;;;;;;5047375;28;20437;-81
2021/07/04 02:34:15;;;;;;;9.23;8.33;;;18.40;99.90;;;;;;5054828;28;20444;-82
2021/07/04 02:36:43;;;;;;;12.40;10.10;;;18.50;99.90;;;;;;5048881;28;20459;-82
2021/07/04 02:39:10;;;;;;;10.07;9.07;;;18.50;99.90;;;;;;5045983;28;20506;-82
2021/07/04 02:41:37;;;;;;;11.23;9.10;;;18.50;99.90;;;;;;5027253;28;20458;-82
2021/07/04 02:44:04;;;;;;;13.47;9.37;;;18.40;99.90;;;;;;5029226;28;20511;-83
2021/07/04 02:46:31;;;;;;;13.90;11.30;;;18.40;99.90;;;;;;5026536;28;20444;-82
2021/07/04 02:48:58;;;;;;;14.10;9.10;;;18.30;99.90;;;;;;5025490;28;20461;-82
2021/07/04 02:51:24;;;;;;;10.33;9.37;;;18.30;99.90;;;;;;5025706;28;20470;-82
2021/07/04 02:53:52;;;;;;;11.33;9.27;;;18.30;99.90;;;;;;5025506;28;20517;-83
2021/07/04 02:56:19;;;;;;;10.70;9.70;;;18.30;99.90;;;;;;5025828;28;20449;-82
2021/07/04 02:58:45;;;;;;;11.00;9.77;;;18.20;99.90;;;;;;5025591;28;20485;-83
2021/07/04 03:01:12;;;;;;;12.30;10.17;;;18.20;99.90;;;;;;5025648;28;20464;-82
2021/07/04 03:03:38;;;;;;;14.30;9.67;;;18.20;99.90;;;;;;5026226;28;20437;-82
2021/07/04 03:06:05;;;;;;;11.03;10.03;;;18.20;99.90;;;;;;5026041;28;20857;-83
2021/07/04 03:08:31;;;;;;;11.57;9.63;;;18.20;99.90;;;;;;5025194;28;20509;-82
2021/07/04 03:10:59;;;;;;;11.53;10.03;;;18.20;99.90;;;;;;5024960;28;20533;-82
2021/07/04 03:13:26;;;;;;;11.23;10.03;;;18.20;99.90;;;;;;5025304;28;20449;-82
2021/07/04 03:15:53;;;;;;;15.40;9.87;;;18.20;99.90;;;;;;5026762;28;20453;-82
2021/07/04 03:18:19;;;;;;;10.87;9.77;;;18.30;99.90;;;;;;5028058;28;20454;-82
2021/07/04 03:20:46;;;;;;;11.60;10.50;;;18.30;99.90;;;;;;5035830;28;20485;-82
2021/07/04 03:23:12;;;;;;;12.00;9.43;;;18.30;99.90;;;;;;5033678;28;20511;-82
2021/07/04 03:25:39;;;;;;;12.40;11.27;;;18.30;99.90;;;;;;5027300;28;20453;-82
2021/07/04 03:28:07;;;;;;;12.60;9.60;;;18.30;99.90;;;;;;5027348;28;20449;-82
2021/07/04 03:30:34;;;;;;;11.70;10.33;;;18.30;99.90;;;;;;5025163;28;20477;-83
2021/07/04 03:33:00;;;;;;;11.90;10.37;;;18.30;99.90;;;;;;5023817;28;20449;-82
2021/07/04 03:35:27;;;;;;;12.30;10.10;;;18.40;99.90;;;;;;5023588;28;20481;-82
2021/07/04 03:37:54;;;;;;;11.77;10.33;;;18.30;99.90;;;;;;5023466;28;20445;-82
2021/07/04 03:40:21;;;;;;;13.20;9.80;;;18.30;99.90;;;;;;5023027;28;20493;-83
2021/07/04 03:42:49;;;;;;;11.40;10.40;;;18.40;99.90;;;;;;5022972;28;20819;-82
2021/07/04 03:45:17;;;;;;;12.93;10.17;;;18.40;99.90;;;;;;5023755;28;20867;-81
2021/07/04 03:47:45;;;;;;;12.17;10.93;;;18.40;99.90;;;;;;5022205;28;20446;-82
2021/07/04 03:50:13;;;;;;;11.93;10.73;;;18.40;99.90;;;;;;5022087;28;20491;-82
2021/07/04 03:52:41;;;;;;;11.80;10.53;;;18.40;99.90;;;;;;5020031;28;20452;-82
2021/07/04 03:55:09;;;;;;;11.43;10.23;;;18.40;99.90;;;;;;5020510;28;20477;-82
2021/07/04 03:57:35;;;;;;;12.50;11.30;;;18.40;99.90;;;;;;5021654;28;20817;-83
2021/07/04 04:00:05;;;;;;;12.83;10.73;;;18.40;99.90;;;;;;5022356;28;20486;-82
2021/07/04 04:02:33;;;;;;;16.27;11.80;;;18.40;99.90;;;;;;5022309;28;20481;-82
2021/07/04 04:04:59;;;;;;;12.03;10.73;;;18.40;99.90;;;;;;5031761;28;20507;-82
2021/07/04 04:07:26;;;;;;;11.30;10.07;;;18.40;99.90;;;;;;5031225;28;20453;-82
2021/07/04 04:09:53;;;;;;;11.67;10.57;;;18.40;99.90;;;;;;5027138;28;20466;-82
2021/07/04 04:12:21;;;;;;;17.17;12.07;;;18.40;99.90;;;;;;5025409;28;20952;-82
2021/07/04 04:14:47;;;;;;;14.30;11.93;;;18.40;99.90;;;;;;5023477;28;20449;-82
2021/07/04 04:17:14;;;;;;;12.63;11.43;;;18.50;99.90;;;;;;5022262;28;20860;-82
2021/07/04 04:19:42;;;;;;;12.27;10.80;;;18.50;99.90;;;;;;5022541;28;20497;-82
2021/07/04 04:22:08;;;;;;;11.50;10.30;;;18.50;99.90;;;;;;5021606;28;20450;-82
2021/07/04 04:24:35;;;;;;;11.30;9.70;;;18.60;99.90;;;;;;5021463;28;20442;-81
2021/07/04 04:27:02;;;;;;;12.13;10.93;;;18.60;99.90;;;;;;5022547;28;20486;-82
2021/07/04 04:29:28;;;;;;;11.73;10.50;;;18.70;99.90;;;;;;5022282;28;20469;-82
2021/07/04 04:31:55;;;;;;;11.80;10.60;;;18.70;99.90;;;;;;5022193;28;20455;-82
2021/07/04 04:34:21;;;;;;;10.53;9.53;;;18.70;99.90;;;;;;5021554;28;20442;-82
2021/07/04 04:36:49;;;;;;;11.83;10.77;;;18.80;99.90;;;;;;5020851;28;20445;-82
2021/07/04 04:39:16;;;;;;;13.40;11.60;;;18.70;99.90;;;;;;5020385;28;21118;-82
2021/07/04 04:41:43;;;;;;;14.90;11.27;;;18.80;99.90;;;;;;5020835;28;20454;-82
2021/07/04 04:44:09;;;;;;;13.63;11.10;;;18.80;99.90;;;;;;5020634;28;20465;-82
2021/07/04 04:46:36;;;;;;;18.37;16.40;;;18.80;99.90;;;;;;5020889;28;20454;-82
2021/07/04 04:49:03;;;;;;;12.40;11.20;;;18.70;99.90;;;;;;5020530;28;20935;-82
2021/07/04 04:51:29;;;;;;;15.13;11.53;;;18.80;99.90;;;;;;5019951;28;21094;-82
2021/07/04 04:53:57;;;;;;;12.27;11.17;;;18.70;99.90;;;;;;5020147;28;20505;-82
2021/07/04 04:56:24;;;;;;;13.53;10.37;;;18.70;99.90;;;;;;5019633;28;20454;-82
2021/07/04 04:58:51;;;;;;;18.33;11.73;;;18.70;99.90;;;;;;5020067;28;20445;-83
2021/07/04 05:01:17;;;;;;;12.63;11.43;;;18.70;99.90;;;;;;5020031;28;20465;-83
2021/07/04 05:03:44;;;;;;;13.47;12.07;;;18.60;99.90;;;;;;5020298;28;20453;-82
2021/07/04 05:06:11;;;;;;;13.77;12.37;;;18.60;99.90;;;;;;5019948;28;20450;-82
2021/07/04 05:08:38;;;;;;;15.40;13.23;;;18.60;99.90;;;;;;5021765;28;20458;-82
2021/07/04 05:11:08;;;;;;;14.53;13.13;;;18.60;99.90;;;;;;5021693;28;20488;-82
2021/07/04 05:13:34;;;;;;;14.23;12.20;;;18.60;99.90;;;;;;5022530;28;20457;-82
2021/07/04 05:16:01;;;;;;;13.90;12.70;;;18.60;99.90;;;;;;5021006;28;20523;-82
2021/07/04 05:18:27;;;;;;;14.10;12.70;;;18.60;99.90;;;;;;5019846;28;20454;-82
2021/07/04 05:20:54;;;;;;;13.70;12.50;;;18.60;99.90;;;;;;5028648;28;20584;-81
2021/07/04 05:23:20;;;;;;;13.83;11.77;;;18.60;99.90;;;;;;5033816;28;20457;-81
2021/07/04 05:25:49;;;;;;;14.67;13.00;;;18.60;99.90;;;;;;5033357;28;20441;-81
2021/07/04 05:28:17;;;;;;;13.80;12.40;;;18.60;99.90;;;;;;5021417;28;20460;-82
2021/07/04 05:30:44;;;;;;;14.10;12.70;;;18.70;99.90;;;;;;5021416;28;20491;-82
2021/07/04 05:33:10;;;;;;;13.23;12.03;;;18.70;99.90;;;;;;5032972;28;20477;-82
2021/07/04 05:35:39;;;;;;;14.60;13.10;;;18.80;99.90;;;;;;5028583;28;20442;-82
2021/07/04 05:38:05;;;;;;;13.80;12.50;;;18.90;99.90;;;;;;5021897;28;20891;-81
2021/07/04 05:40:32;;;;;;;14.40;13.00;;;19.00;99.90;;;;;;5022451;28;20482;-81
2021/07/04 05:42:58;;;;;;;14.47;11.83;;;19.00;99.90;;;;;;5021392;28;20482;-82
2021/07/04 05:45:28;;;;;;;16.10;13.47;;;19.00;99.90;;;;;;5020240;28;20948;-82
2021/07/04 05:47:55;;;;;;;15.27;13.77;;;19.10;99.90;;;;;;5021326;28;20479;-82
2021/07/04 05:50:22;;;;;;;15.13;13.40;;;19.10;99.90;;;;;;5020567;28;20901;-81
2021/07/04 05:52:49;;;;;;;14.87;13.47;;;19.20;99.90;;;;;;5023544;28;20462;-82
2021/07/04 05:55:16;;;;;;;15.10;13.70;;;19.30;99.90;;;;;;5023710;28;20793;-82
2021/07/04 05:57:42;;;;;;;12.90;11.60;;;19.30;99.90;;;;;;5024507;28;20445;-82
2021/07/04 06:00:10;;;;;;;14.43;13.00;;;19.40;99.90;;;;;;5033619;28;20483;-81
2021/07/04 06:02:38;;;;;;;15.13;13.63;;;19.50;99.90;;;;;;5036763;28;20453;-82
2021/07/04 06:05:06;;;;;;;16.03;13.13;;;19.50;99.90;;;;;;5036733;28;20466;-82
2021/07/04 06:07:34;;;;;;;14.90;12.40;;;19.70;99.90;;;;;;5028264;28;20937;-82
2021/07/04 06:10:00;;;;;;;14.17;12.80;;;19.80;99.90;;;;;;5023890;28;20467;-82
2021/07/04 06:12:27;;;;;;;13.50;12.17;;;19.90;99.90;;;;;;5023946;28;21008;-82
2021/07/04 06:14:53;;;;;;;13.33;11.93;;;20.00;99.90;;;;;;5023997;28;20439;-82
2021/07/04 06:17:20;;;;;;;15.63;14.10;;;20.10;99.90;;;;;;5024167;28;20446;-82
2021/07/04 06:19:48;;;;;;;12.50;11.40;;;20.00;99.90;;;;;;5023990;28;20523;-82
2021/07/04 06:22:15;;;;;;;13.90;11.97;;;20.10;99.90;;;;;;5024513;28;20451;-82
2021/07/04 06:24:42;;;;;;;14.10;12.70;;;20.10;99.90;;;;;;5024209;28;20451;-82
2021/07/04 06:27:08;;;;;;;13.47;12.13;;;20.20;99.90;;;;;;5024297;28;20454;-82
2021/07/04 06:29:35;;;;;;;12.20;11.00;;;20.20;99.90;;;;;;5023308;28;20989;-81
2021/07/04 06:32:01;;;;;;;13.20;12.00;;;20.20;99.90;;;;;;5024841;28;20490;-81
2021/07/04 06:34:28;;;;;;;12.77;11.50;;;20.20;99.90;;;;;;5023243;28;20501;-82
2021/07/04 06:36:56;;;;;;;11.30;10.20;;;20.20;99.90;;;;;;5023794;28;20448;-81
2021/07/04 06:39:22;;;;;;;13.97;12.67;;;20.40;99.90;;;;;;5024085;28;20456;-83
2021/07/04 06:41:49;;;;;;;13.40;12.07;;;20.30;99.90;;;;;;5025393;28;20507;-82
2021/07/04 06:44:16;;;;;;;13.70;12.40;;;20.20;99.90;;;;;;5023598;28;20479;-82
2021/07/04 06:46:44;;;;;;;14.17;12.77;;;20.20;99.90;;;;;;5023920;28;20448;-83
2021/07/04 06:49:10;;;;;;;12.40;11.30;;;20.20;99.90;;;;;;5023287;28;20790;-82
2021/07/04 06:51:37;;;;;;;13.00;11.80;;;20.30;99.90;;;;;;5023301;28;20435;-81
2021/07/04 06:54:05;;;;;;;12.73;11.37;;;20.40;99.90;;;;;;5030274;28;20443;-81
2021/07/04 06:56:31;;;;;;;14.30;12.90;;;20.40;99.90;;;;;;5033346;28;20448;-81
2021/07/04 06:58:58;;;;;;;13.87;12.17;;;20.40;99.90;;;;;;5023776;28;20822;-82
2021/07/04 07:01:24;;;;;;;13.23;12.03;;;20.40;99.90;;;;;;5023563;28;20518;-83
2021/07/04 07:03:51;;;;;;;12.87;11.33;;;20.60;99.90;;;;;;5022384;28;20474;-82
2021/07/04 07:06:18;;;;;;;12.70;11.40;;;20.50;99.90;;;;;;5023436;28;20452;-82
2021/07/04 07:08:46;;;;;;;11.33;10.30;;;20.60;99.90;;;;;;5023364;28;20547;-82
2021/07/04 07:11:14;;;;;;;10.73;9.63;;;20.70;99.90;;;;;;5024628;28;20468;-82
2021/07/04 07:13:40;;;;;;;11.70;10.50;;;20.80;99.90;;;;;;5023766;28;20482;-82
2021/07/04 07:16:07;;;;;;;9.90;9.03;;;20.80;99.90;;;;;;5024564;28;20448;-83
2021/07/04 07:18:34;;;;;;;14.60;10.90;;;20.90;99.90;;;;;;5023355;28;20448;-82
2021/07/04 07:21:03;;;;;;;10.37;9.37;;;21.00;99.90;;;;;;5022712;28;20483;-82
2021/07/04 07:23:30;;;;;;;11.97;10.73;;;21.10;99.90;;;;;;5023976;28;20518;-82
2021/07/04 07:25:56;;;;;;;14.17;9.13;;;21.20;99.90;;;;;;5032630;28;20431;-82
2021/07/04 07:28:24;;;;;;;9.10;8.13;;;21.30;99.90;;;;;;5034353;28;20447;-82
2021/07/04 07:30:51;;;;;;;7.93;6.17;;;21.40;99.90;;;;;;5034424;28;20463;-82
2021/07/04 07:33:17;;;;;;;5.80;5.30;;;21.40;99.90;;;;;;5034522;28;20440;-82
2021/07/04 07:35:44;;;;;;;7.10;6.50;;;21.40;99.90;;;;;;5035838;28;20444;-82
2021/07/04 07:38:11;;;;;;;5.70;5.20;;;21.60;99.90;;;;;;5035964;28;20519;-82
2021/07/04 07:40:38;;;;;;;10.07;9.17;;;21.50;99.90;;;;;;5027320;28;20467;-82
2021/07/04 07:43:06;;;;;;;7.33;6.57;;;21.60;99.90;;;;;;5026061;28;20475;-82
2021/07/04 07:48:16;;;;;;;5.17;4.67;;;21.80;99.90;;;;;;5022931;28;20483;-83
2021/07/04 07:50:45;;;;;;;6.80;5.27;;;21.80;99.90;;;;;;5025027;28;20452;-84
2021/07/04 07:53:12;;;;;;;6.70;6.10;;;21.80;99.90;;;;;;5032553;28;20443;-82
2021/07/04 07:55:44;;;;;;;6.27;5.77;;;21.90;99.90;;;;;;5033780;28;20451;-82
2021/07/04 07:58:12;;;;;;;7.33;6.63;;;22.10;99.90;;;;;;5033716;28;20458;-82
2021/07/04 08:00:40;;;;;;;6.90;6.20;;;22.00;99.90;;;;;;5031096;28;20537;-81
2021/07/04 08:03:07;;;;;;;6.00;5.50;;;22.00;99.90;;;;;;5031576;28;20439;-82
2021/07/04 08:05:34;;;;;;;6.97;6.40;;;21.90;99.90;;;;;;5026595;28;20450;-84
2021/07/04 08:08:00;;;;;;;6.23;5.73;;;22.20;99.90;;;;;;5025981;28;20534;-82
2021/07/04 08:10:27;;;;;;;5.73;5.30;;;22.30;99.90;;;;;;5024764;28;20525;-83
2021/07/04 08:12:55;;;;;;;9.00;7.57;;;22.30;99.90;;;;;;5028567;28;20451;-83
2021/07/04 08:15:22;;;;;;;6.03;5.43;;;22.40;99.90;;;;;;5027631;28;20475;-82
2021/07/04 08:17:50;;;;;;;5.93;5.43;;;22.40;99.90;;;;;;5024490;28;20462;-82
2021/07/04 08:20:18;;;;;;;5.57;5.17;;;22.60;99.90;;;;;;5024126;28;20494;-83
2021/07/04 08:22:45;;;;;;;7.40;6.57;;;22.70;99.90;;;;;;5022339;28;20454;-81
2021/07/04 08:25:13;;;;;;;6.57;4.93;;;22.50;99.90;;;;;;5022197;28;20519;-82
2021/07/04 08:27:39;;;;;;;6.00;5.50;;;22.40;99.90;;;;;;5019741;28;20451;-82
2021/07/04 08:30:09;;;;;;;10.20;6.20;;;22.50;99.90;;;;;;5040019;22;20456;-77
2021/07/04 08:32:36;;;;;;;8.23;7.40;;;22.50;99.90;;;;;;5059503;28;20468;-78
2021/07/04 08:35:05;;;;;;;7.40;5.87;;;22.60;99.90;;;;;;5059450;28;20446;-78
2021/07/04 08:37:32;;;;;;;6.70;6.20;;;22.60;99.90;;;;;;5058785;28;20495;-78
2021/07/04 08:39:59;;;;;;;5.83;5.43;;;22.60;99.90;;;;;;5060233;28;20447;-78
2021/07/04 08:42:25;;;;;;;6.50;5.80;;;22.70;99.90;;;;;;5060673;28;20442;-78
2021/07/04 08:44:55;;;;;;;7.07;6.27;;;22.70;99.90;;;;;;5060984;28;20442;-78
2021/07/04 08:47:23;;;;;;;7.43;6.87;;;22.70;99.90;;;;;;5060046;28;20536;-78
2021/07/04 08:49:51;;;;;;;6.53;6.00;;;22.70;99.90;;;;;;5060664;28;20472;-78
2021/07/04 08:52:20;;;;;;;7.93;7.23;;;22.70;99.90;;;;;;5060758;28;20442;-78
2021/07/04 08:54:47;;;;;;;6.93;6.33;;;22.80;99.90;;;;;;5059338;28;20450;-78
2021/07/04 08:57:16;;;;;;;7.97;7.30;;;22.90;99.90;;;;;;5060112;28;20476;-78
2021/07/04 08:59:44;;;;;;;6.50;6.00;;;22.90;99.90;;;;;;5060344;28;20510;-77
2021/07/04 09:02:13;;;;;;;10.80;9.70;;;23.00;99.90;;;;;;5059143;28;20482;-78
2021/07/04 09:04:41;;;;;;;7.17;6.47;;;23.00;99.90;;;;;;5059120;28;20454;-78
2021/07/04 09:07:08;;;;;;;7.80;6.80;;;23.10;99.90;;;;;;5059475;28;20944;-78
2021/07/04 09:09:36;;;;;;;6.10;5.60;;;23.10;99.90;;;;;;5058849;28;20503;-78
2021/07/04 09:12:05;;;;;;;6.63;6.13;;;23.10;99.90;;;;;;5058893;28;20520;-78
2021/07/04 09:14:35;;;;;;;8.10;7.40;;;23.20;99.90;;;;;;5059688;28;20480;-78
2021/07/04 09:17:04;;;;;;;8.00;6.20;;;23.20;99.90;;;;;;5058667;28;20448;-78
2021/07/04 09:19:31;;;;;;;7.53;6.77;;;23.20;99.90;;;;;;5059274;28;20448;-78
2021/07/04 09:22:00;;;;;;;6.43;5.93;;;23.30;99.90;;;;;;5058857;28;20536;-78
2021/07/04 09:24:28;;;;;;;8.27;7.47;;;23.40;99.90;;;;;;5058706;28;20435;-78
2021/07/04 09:26:56;;;;;;;8.40;6.93;;;23.50;99.90;;;;;;5060325;28;20489;-79
2021/07/04 09:29:48;;;;;;;7.80;6.30;;;23.60;99.90;;;;;;5063136;28;20453;-78
2021/07/04 09:32:18;;;;;;;6.50;6.07;;;23.40;99.90;;;;;;5060580;28;20460;-78
2021/07/04 09:35:01;;;;;;;5.93;5.43;;;23.60;99.90;;;;;;5060893;28;20439;-78
2021/07/04 09:37:30;;;;;;;6.70;6.20;;;23.80;99.90;;;;;;5062631;28;20428;-78
2021/07/04 09:40:08;;;;;;;6.50;6.00;;;23.90;99.90;;;;;;5061962;28;20466;-78
2021/07/04 09:42:53;;;;;;;6.90;6.30;;;23.90;99.90;;;;;;5063376;28;20784;-78
2021/07/04 09:45:20;;;;;;;7.37;6.77;;;23.60;99.90;;;;;;5059486;28;20801;-79
2021/07/04 09:47:51;;;;;;;6.07;5.47;;;23.60;99.90;;;;;;5059795;28;20496;-79
2021/07/04 09:50:18;;;;;;;7.33;6.73;;;23.60;99.90;;;;;;5060676;28;20460;-78
2021/07/04 09:52:56;;;;;;;7.10;6.33;;;23.60;99.90;;;;;;5064493;28;20438;-77
2021/07/04 09:55:23;;;;;;;6.10;5.60;;;23.60;99.90;;;;;;5061820;28;20432;-78
2021/07/04 09:57:56;;;;;;;6.03;5.53;;;23.40;99.90;;;;;;5057660;28;20438;-79
2021/07/04 10:00:25;;;;;;;8.20;6.10;;;23.30;99.90;;;;;;5058179;28;20470;-79
2021/07/04 10:03:12;;;;;;;7.23;6.63;;;23.20;99.90;;;;;;5057937;28;20501;-79
2021/07/04 10:05:40;;;;;;;6.10;5.50;;;23.30;99.90;;;;;;5058026;28;20448;-80
2021/07/04 10:08:26;;;;;;;8.03;7.30;;;23.20;99.90;;;;;;5059111;28;20863;-78
2021/07/04 10:10:56;;;;;;;6.60;5.90;;;23.20;99.90;;;;;;5058991;28;20462;-79
2021/07/04 10:13:24;;;;;;;6.70;6.10;;;23.10;99.90;;;;;;5058906;28;20448;-81
2021/07/04 10:15:51;;;;;;;6.53;6.00;;;23.30;99.90;;;;;;5057909;28;20443;-81
2021/07/04 10:18:19;;;;;;;7.17;6.47;;;23.40;99.90;;;;;;5058003;28;20445;-79
2021/07/04 10:20:47;;;;;;;6.30;5.53;;;23.50;99.90;;;;;;5058495;28;20482;-79
2021/07/04 10:23:15;;;;;;;8.57;6.90;;;23.60;99.90;;;;;;5057991;28;20442;-78
2021/07/04 10:25:43;;;;;;;6.80;6.30;;;23.70;99.90;;;;;;5057229;28;20867;-80
2021/07/04 10:28:12;;;;;;;7.43;6.67;;;23.70;99.90;;;;;;5057542;28;20498;-80
2021/07/04 10:30:41;;;;;;;7.33;6.10;;;23.90;99.90;;;;;;5022292;28;1002855;-79
2021/07/04 10:33:15;;;;;;;6.67;6.20;;;24.00;99.90;;;;;;5058657;28;20218;-80
2021/07/04 10:36:02;;;;;;;6.87;6.23;;;24.00;99.90;;;;;;5058680;28;20433;-79
2021/07/04 10:38:45;;;;;;;6.00;5.57;;;24.10;99.90;;;;;;5058464;28;20491;-78
2021/07/04 10:41:14;;;;;;;6.77;6.07;;;24.20;99.90;;;;;;5057843;28;20483;-78
2021/07/04 10:43:52;;;;;;;7.30;6.70;;;24.10;99.90;;;;;;5058554;28;20475;-78
2021/07/04 10:46:59;;;;;;;7.20;6.60;;;24.30;99.90;;;;;;5058218;28;20525;-81
2021/07/04 10:49:33;;;;;;;7.30;6.70;;;24.40;99.90;;;;;;5058952;28;20841;-78
2021/07/04 10:52:01;;;;;;;6.47;6.00;;;24.40;99.90;;;;;;5058801;28;20473;-79
2021/07/04 10:54:48;;;;;;;6.80;6.30;;;24.60;99.90;;;;;;5058091;28;20480;-79
2021/07/04 10:57:16;;;;;;;8.03;7.23;;;24.60;99.90;;;;;;5058917;28;20437;-79
2021/07/04 11:00:07;;;;;;;8.83;8.03;;;24.60;99.90;;;;;;5058002;28;20496;-79
2021/07/04 11:02:41;;;;;;;6.53;5.93;;;24.60;99.90;;;;;;5057922;28;20484;-78
2021/07/04 11:05:08;;;;;;;9.80;8.90;;;24.40;99.90;;;;;;5063344;28;20457;-78
2021/07/04 11:08:06;;;;;;;8.17;7.40;;;24.40;99.90;;;;;;5063085;28;20450;-78
2021/07/04 11:10:34;;;;;;;9.33;6.60;;;24.40;99.90;;;;;;5057126;28;20841;-79
2021/07/04 11:13:26;;;;;;;7.47;6.60;;;24.40;99.90;;;;;;5061691;28;20446;-80
2021/07/04 11:16:13;;;;;;;6.87;6.27;;;24.30;99.90;;;;;;5062451;28;21018;-77
2021/07/04 11:18:44;;;;;;;9.27;8.03;;;24.40;99.90;;;;;;5059612;28;20841;-78
2021/07/04 11:21:11;;;;;;;9.27;8.00;;;24.50;99.90;;;;;;5059536;28;20547;-77
2021/07/04 11:23:38;;;;;;;8.70;7.90;;;24.50;99.90;;;;;;5059774;28;20452;-79
2021/07/04 11:26:16;;;;;;;17.40;12.43;;;24.50;99.90;;;;;;5059029;28;20446;-78
2021/07/04 11:28:45;;;;;;;12.13;9.60;;;24.60;99.90;;;;;;5058172;28;20430;-78
2021/07/04 11:31:29;;;;;;;10.10;9.10;;;24.70;99.90;;;;;;5057294;28;20990;-79
2021/07/04 11:33:58;;;;;;;7.70;7.07;;;25.10;99.90;;;;;;5059218;28;20434;-79
2021/07/04 11:36:26;;;;;;;6.50;6.00;;;24.80;99.90;;;;;;5059614;28;20495;-79
2021/07/04 11:38:55;;;;;;;8.67;7.47;;;24.90;99.90;;;;;;5059343;28;20783;-79
2021/07/04 11:41:24;;;;;;;8.03;7.33;;;25.00;99.90;;;;;;5057715;28;20489;-79
2021/07/04 11:43:52;;;;;;;9.03;8.13;;;25.00;99.90;;;;;;5057509;28;20919;-80
2021/07/04 11:46:20;;;;;;;10.03;7.40;;;25.00;99.90;;;;;;5057584;28;20441;-80
2021/07/04 11:48:52;;;;;;;6.87;6.37;;;25.00;99.90;;;;;;5057573;28;20446;-79
2021/07/04 11:51:33;;;;;;;7.40;5.83;;;24.90;99.90;;;;;;5057711;28;20472;-79
2021/07/04 11:54:03;;;;;;;7.30;6.70;;;24.80;99.90;;;;;;5058770;28;20434;-80
2021/07/04 11:56:31;;;;;;;6.60;6.10;;;24.90;99.90;;;;;;5057821;28;20490;-79
2021/07/04 11:59:12;;;;;;;7.23;6.00;;;24.70;99.90;;;;;;5059903;28;20931;-80
2021/07/04 12:01:51;;;;;;;7.70;6.03;;;24.50;99.90;;;;;;5065714;28;20496;-80
2021/07/04 12:04:19;;;;;;;7.00;6.40;;;24.40;99.90;;;;;;5068650;28;20867;-79
2021/07/04 12:06:56;;;;;;;10.40;9.40;;;24.50;99.90;;;;;;5066493;28;20449;-79
2021/07/04 12:09:39;;;;;;;12.87;8.60;;;24.60;99.90;;;;;;5068839;28;20436;-78
2021/07/04 12:12:07;;;;;;;6.70;6.20;;;24.70;99.90;;;;;;5067301;28;20472;-78
2021/07/04 12:14:35;;;;;;;24.43;17.50;;;24.80;99.90;;;;;;5068867;28;20452;-77
2021/07/04 12:17:33;;;;;;;7.03;6.47;;;25.00;99.90;;;;;;5069196;28;20461;-79
2021/07/04 12:20:02;;;;;;;6.73;5.93;;;24.90;99.90;;;;;;5064296;28;20431;-78
2021/07/04 12:22:32;;;;;;;12.57;6.80;;;24.90;99.90;;;;;;5061384;28;20483;-78
2021/07/04 12:25:06;;;;;;;8.00;7.40;;;24.90;99.90;;;;;;5061366;28;20943;-79
2021/07/04 12:27:38;;;;;;;12.20;10.90;;;25.10;99.90;;;;;;5059178;28;20430;-80
2021/07/04 12:30:12;;;;;;;19.77;14.63;;;25.30;99.90;;;;;;5059620;28;20462;-80
2021/07/04 12:32:42;;;;;;;11.70;9.90;;;25.40;99.90;;;;;;5063259;28;20417;-79
2021/07/04 12:35:18;;;;;;;10.43;7.63;;;25.40;99.90;;;;;;5064844;28;20442;-79
2021/07/04 12:37:47;;;;;;;7.50;6.80;;;25.40;99.90;;;;;;5063769;28;20433;-77
2021/07/04 12:40:16;;;;;;;6.93;6.43;;;24.90;99.90;;;;;;5059527;28;20469;-77
2021/07/04 12:42:43;;;;;;;5.97;5.47;;;25.20;99.90;;;;;;5059247;28;20477;-78
2021/07/04 12:45:12;;;;;;;6.53;6.03;;;24.90;99.90;;;;;;5056965;28;20480;-78
2021/07/04 12:47:39;;;;;;;10.43;5.93;;;24.90;99.90;;;;;;5057448;28;20475;-78
2021/07/04 12:50:12;;;;;;;7.60;6.90;;;25.00;99.90;;;;;;5057168;28;20465;-78
2021/07/04 12:52:54;;;;;;;6.50;6.00;;;25.10;99.90;;;;;;5057336;28;20447;-78
2021/07/04 12:55:37;;;;;;;6.93;6.33;;;25.20;99.90;;;;;;5057184;28;20454;-79
2021/07/04 12:58:21;;;;;;;8.23;7.43;;;25.30;99.90;;;;;;5056555;28;20875;-78